createdAt,value
2022-11-08T00:01:52.139Z,100797.94
2022-11-08T00:04:22.451Z,100797.47
2022-11-08T00:06:52.892Z,100792.29
2022-11-08T00:09:23.337Z,100796.60
2022-11-08T00:11:53.780Z,100798.79
2022-11-08T00:14:24.257Z,100799.13
2022-11-08T00:16:54.670Z,100801.69
2022-11-08T00:19:24.915Z,100803.90
2022-11-08T00:21:55.201Z,100799.48
2022-11-08T00:24:25.641Z,100798.50
2022-11-08T00:26:56.043Z,100795.90
2022-11-08T00:29:26.466Z,100794.14
2022-11-08T00:31:56.936Z,100800.31
2022-11-08T00:34:27.350Z,100798.22
2022-11-08T00:36:57.795Z,100798.04
2022-11-08T00:39:28.309Z,100798.84
2022-11-08T00:41:58.676Z,100793.08
2022-11-08T00:44:29.109Z,100797.33
2022-11-08T00:46:59.567Z,100793.60
2022-11-08T00:49:30.029Z,100789.40
2022-11-08T00:52:00.458Z,100795.02
2022-11-08T00:54:30.898Z,100797.08
2022-11-08T00:57:01.408Z,100793.48
2022-11-08T00:59:31.827Z,100792.14
2022-11-08T01:02:02.441Z,100787.67
2022-11-08T01:04:32.721Z,100793.25
2022-11-08T01:07:03.185Z,100794.96
2022-11-08T01:09:33.739Z,100795.62
2022-11-08T01:12:04.141Z,100791.54
2022-11-08T01:14:34.592Z,100790.82
2022-11-08T01:17:05.069Z,100790.18
2022-11-08T01:19:35.568Z,100791.47
2022-11-08T01:22:06.001Z,100785.54
2022-11-08T01:24:36.457Z,100785.49
2022-11-08T01:27:07.013Z,100789.94
2022-11-08T01:29:37.466Z,100787.14
2022-11-08T01:32:07.968Z,100782.46
2022-11-08T01:34:38.507Z,100782.34
2022-11-08T01:37:09.035Z,100782.69
2022-11-08T01:39:39.599Z,100783.12
2022-11-08T01:42:10.016Z,100785.94
2022-11-08T01:44:40.569Z,100785.06
2022-11-08T01:47:10.873Z,100772.45
2022-11-08T01:49:41.514Z,100770.22
2022-11-08T01:52:11.799Z,100769.25
2022-11-08T01:54:42.023Z,100773.26
2022-11-08T01:57:12.316Z,100763.98
2022-11-08T01:59:42.804Z,100762.31
2022-11-08T02:02:13.459Z,100760.18
2022-11-08T02:04:44.174Z,100756.85
2022-11-08T02:07:14.192Z,100761.01
2022-11-08T02:09:44.421Z,100756.05
2022-11-08T02:12:14.772Z,100756.45
2022-11-08T02:14:45.173Z,100759.34
2022-11-08T02:17:15.680Z,100755.33
2022-11-08T02:19:46.034Z,100757.44
2022-11-08T02:22:16.101Z,100751.62
2022-11-08T02:24:46.670Z,100753.17
2022-11-08T02:27:17.336Z,100747.26
2022-11-08T02:29:47.643Z,100743.51
2022-11-08T02:32:18.313Z,100740.63
2022-11-08T02:34:48.607Z,100734.45
2022-11-08T02:37:18.857Z,100739.16
2022-11-08T02:39:49.696Z,100733.45
2022-11-08T02:42:19.884Z,100733.27
2022-11-08T02:44:50.585Z,100728.75
2022-11-08T02:47:21.266Z,100726.15
2022-11-08T02:49:51.278Z,100728.46
2022-11-08T02:52:21.774Z,100721.29
2022-11-08T02:54:52.280Z,100722.33
2022-11-08T02:57:22.763Z,100717.94
2022-11-08T02:59:53.235Z,100712.28
2022-11-08T03:02:23.834Z,100709.74
2022-11-08T03:04:54.226Z,100716.25
2022-11-08T03:07:25.133Z,100706.02
2022-11-08T03:09:55.285Z,100707.63
2022-11-08T03:12:25.532Z,100708.81
2022-11-08T03:14:55.875Z,100708.29
2022-11-08T03:17:26.208Z,100706.48
2022-11-08T03:19:56.874Z,100709.63
2022-11-08T03:22:27.660Z,100711.02
2022-11-08T03:24:57.971Z,100705.93
2022-11-08T03:27:28.390Z,100707.18
2022-11-08T03:29:59.195Z,100711.16
2022-11-08T03:32:29.289Z,100707.23
2022-11-08T03:34:59.357Z,100704.65
2022-11-08T03:37:29.927Z,100708.98
2022-11-08T03:40:00.005Z,100701.57
2022-11-08T03:42:30.661Z,100700.89
2022-11-08T03:45:00.870Z,100701.28
2022-11-08T03:47:31.473Z,100700.90
2022-11-08T03:50:01.803Z,100700.10
2022-11-08T03:52:32.274Z,100696.89
2022-11-08T03:55:02.782Z,100697.86
2022-11-08T03:57:33.271Z,100697.58
2022-11-08T04:00:03.779Z,100700.31
2022-11-08T04:02:34.367Z,100700.32
2022-11-08T04:05:04.819Z,100694.26
2022-11-08T04:07:35.047Z,100694.91
2022-11-08T04:10:05.575Z,100689.93
2022-11-08T04:12:36.102Z,100684.59
2022-11-08T04:15:06.270Z,100681.04
2022-11-08T04:17:36.796Z,100678.65
2022-11-08T04:20:07.320Z,100677.69
2022-11-08T04:22:37.833Z,100675.39
2022-11-08T04:25:08.327Z,100668.08
2022-11-08T04:27:38.835Z,100666.69
2022-11-08T04:30:09.332Z,100663.19
2022-11-08T04:32:39.847Z,100659.12
2022-11-08T04:35:10.372Z,100662.04
2022-11-08T04:37:40.878Z,100657.33
2022-11-08T04:40:11.394Z,100657.41
2022-11-08T04:42:41.649Z,100650.72
2022-11-08T04:45:12.210Z,100648.16
2022-11-08T04:47:48.062Z,100642.46
2022-11-08T04:50:13.239Z,100638.63
2022-11-08T04:52:43.755Z,100630.80
2022-11-08T04:55:14.285Z,100629.79
2022-11-08T04:57:44.829Z,100626.22
2022-11-08T05:00:15.380Z,100617.88
2022-11-08T05:02:46.122Z,100611.34
2022-11-08T05:05:16.453Z,100606.77
2022-11-08T05:07:46.945Z,100598.06
2022-11-08T05:10:17.487Z,100599.26
2022-11-08T05:12:48.038Z,100595.01
2022-11-08T05:15:18.666Z,100593.62
2022-11-08T05:17:49.098Z,100595.70
2022-11-08T05:20:19.646Z,100592.64
2022-11-08T05:22:50.166Z,100589.55
2022-11-08T05:25:20.702Z,100587.68
2022-11-08T05:27:51.252Z,100583.64
2022-11-08T05:30:21.780Z,100582.92
2022-11-08T05:32:52.337Z,100581.41
2022-11-08T05:35:22.958Z,100575.65
2022-11-08T05:37:53.404Z,100577.48
2022-11-08T05:40:23.972Z,100575.22
2022-11-08T05:42:54.492Z,100572.15
2022-11-08T05:45:25.011Z,100572.11
2022-11-08T05:47:55.559Z,100566.30
2022-11-08T05:50:26.118Z,100564.79
2022-11-08T05:52:56.633Z,100561.50
2022-11-08T05:55:27.159Z,100557.16
2022-11-08T05:57:57.706Z,100555.70
2022-11-08T06:00:28.239Z,100553.01
2022-11-08T06:02:58.819Z,100548.43
2022-11-08T06:05:29.352Z,100541.87
2022-11-08T06:07:59.951Z,100533.08
2022-11-08T06:10:30.423Z,100528.60
2022-11-08T06:13:00.957Z,100522.83
2022-11-08T06:15:31.496Z,100525.04
2022-11-08T06:18:02.034Z,100525.96
2022-11-08T06:20:32.594Z,100524.20
2022-11-08T06:23:03.119Z,100519.55
2022-11-08T06:25:33.652Z,100515.07
2022-11-08T06:28:04.198Z,100514.45
2022-11-08T06:30:34.767Z,100511.97
2022-11-08T06:33:05.285Z,100502.61
2022-11-08T06:35:35.847Z,100497.45
2022-11-08T06:38:09.266Z,100505.44
2022-11-08T06:40:36.937Z,100505.70
2022-11-08T06:43:07.494Z,100505.88
2022-11-08T06:45:38.039Z,100503.58
2022-11-08T06:48:08.591Z,100504.78
2022-11-08T06:50:39.155Z,100506.50
2022-11-08T06:53:09.673Z,100505.00
2022-11-08T06:55:40.220Z,100506.60
2022-11-08T06:58:10.766Z,100495.64
2022-11-08T07:00:41.301Z,100496.84
2022-11-08T07:03:11.904Z,100489.18
2022-11-08T07:05:42.381Z,100488.23
2022-11-08T07:08:12.906Z,100491.26
2022-11-08T07:10:43.443Z,100494.18
2022-11-08T07:13:13.984Z,100489.78
2022-11-08T07:15:44.593Z,100488.15
2022-11-08T07:18:15.163Z,100485.88
2022-11-08T07:20:45.603Z,100486.87
2022-11-08T07:23:16.141Z,100490.43
2022-11-08T07:25:46.657Z,100491.64
2022-11-08T07:28:17.217Z,100493.46
2022-11-08T07:30:47.766Z,100493.81
2022-11-08T07:33:18.651Z,100490.53
2022-11-08T07:35:48.965Z,100484.81
2022-11-08T07:38:19.342Z,100487.02
2022-11-08T07:40:49.879Z,100477.29
2022-11-08T07:43:20.498Z,100478.27
2022-11-08T07:45:50.948Z,100487.40
2022-11-08T07:48:21.204Z,100489.98
2022-11-08T07:50:51.786Z,100489.32
2022-11-08T07:53:22.282Z,100482.50
2022-11-08T07:55:52.820Z,100481.54
2022-11-08T07:58:23.353Z,100485.32
2022-11-08T08:00:53.914Z,100484.11
2022-11-08T08:03:24.863Z,100482.15
2022-11-08T08:05:59.711Z,100475.76
2022-11-08T08:08:25.463Z,100471.65
2022-11-08T08:10:56.017Z,100473.99
2022-11-08T08:13:26.528Z,100472.76
2022-11-08T08:15:57.056Z,100475.38
2022-11-08T08:18:27.564Z,100473.58
2022-11-08T08:20:58.162Z,100469.14
2022-11-08T08:23:28.603Z,100464.30
2022-11-08T08:25:59.136Z,100462.29
2022-11-08T08:28:29.642Z,100456.57
2022-11-08T08:31:00.266Z,100461.99
2022-11-08T08:33:30.697Z,100458.64
2022-11-08T08:36:01.599Z,100461.80
2022-11-08T08:38:31.713Z,100456.05
2022-11-08T08:41:02.243Z,100451.72
2022-11-08T08:43:32.818Z,100453.20
2022-11-08T08:46:03.365Z,100454.00
2022-11-08T08:48:33.805Z,100450.78
2022-11-08T08:51:04.343Z,100449.51
2022-11-08T08:53:34.843Z,100448.25
2022-11-08T08:56:05.371Z,100445.50
2022-11-08T08:58:36.002Z,100438.93
2022-11-08T09:03:36.881Z,100434.33
2022-11-08T09:06:07.504Z,100427.96
2022-11-08T09:08:37.888Z,100424.91
2022-11-08T09:11:08.408Z,100418.13
2022-11-08T09:13:38.891Z,100430.20
2022-11-08T09:16:09.595Z,100421.25
2022-11-08T09:18:40.012Z,100419.87
2022-11-08T09:21:10.419Z,100416.61
2022-11-08T09:23:40.905Z,100419.46
2022-11-08T09:26:11.419Z,100415.51
2022-11-08T09:28:41.951Z,100408.00
2022-11-08T09:31:12.428Z,100410.19
2022-11-08T09:33:42.907Z,100401.00
2022-11-08T09:36:13.428Z,100404.16
2022-11-08T09:38:43.943Z,100407.57
2022-11-08T09:41:14.511Z,100405.37
2022-11-08T09:43:45.061Z,100408.33
2022-11-08T09:46:15.688Z,100412.42
2022-11-08T09:48:46.308Z,100419.30
2022-11-08T09:51:16.921Z,100418.70
2022-11-08T09:53:47.454Z,100426.97
2022-11-08T09:56:17.995Z,100427.06
2022-11-08T09:58:48.501Z,100424.56
2022-11-08T10:01:21.168Z,100420.32
2022-11-08T10:03:49.508Z,100410.29
2022-11-08T10:06:20.191Z,100395.72
2022-11-08T10:08:50.486Z,100400.75
2022-11-08T10:11:20.972Z,100400.24
2022-11-08T10:13:51.407Z,100405.82
2022-11-08T10:16:21.887Z,100404.44
2022-11-08T10:18:52.343Z,100402.15
2022-11-08T10:21:22.803Z,100404.07
2022-11-08T10:23:53.272Z,100400.15
2022-11-08T10:26:27.068Z,100398.39
2022-11-08T10:28:54.156Z,100392.46
2022-11-08T10:31:24.617Z,100390.35
2022-11-08T10:33:55.076Z,100389.59
2022-11-08T10:36:25.530Z,100385.61
2022-11-08T10:38:56.052Z,100382.34
2022-11-08T10:41:26.424Z,100384.70
2022-11-08T10:43:56.858Z,100376.12
2022-11-08T10:46:27.312Z,100371.15
2022-11-08T10:48:57.741Z,100373.34
2022-11-08T10:51:27.870Z,100374.42
2022-11-08T10:53:58.289Z,100378.73
2022-11-08T10:56:28.710Z,100377.87
2022-11-08T10:58:59.144Z,100369.92
2022-11-08T11:01:29.593Z,100360.96
2022-11-08T11:03:59.980Z,100353.81
2022-11-08T11:06:30.490Z,100360.25
2022-11-08T11:09:00.824Z,100361.63
2022-11-08T11:11:31.257Z,100355.70
2022-11-08T11:14:01.712Z,100353.78
2022-11-08T11:16:32.107Z,100355.59
2022-11-08T11:19:02.513Z,100357.85
2022-11-08T11:21:32.945Z,100353.68
2022-11-08T11:24:03.362Z,100354.49
2022-11-08T11:26:33.805Z,100356.79
2022-11-08T11:29:04.285Z,100354.12
2022-11-08T11:31:34.648Z,100355.39
2022-11-08T11:34:05.139Z,100343.76
2022-11-08T11:36:35.560Z,100342.82
2022-11-08T11:39:05.895Z,100344.68
2022-11-08T11:41:36.439Z,100339.61
2022-11-08T11:44:06.732Z,100338.38
2022-11-08T11:46:41.303Z,100344.89
2022-11-08T11:49:07.587Z,100350.63
2022-11-08T11:51:38.018Z,100346.93
2022-11-08T11:54:08.469Z,100357.46
2022-11-08T11:56:38.760Z,100357.58
2022-11-08T11:59:09.162Z,100361.97
2022-11-08T12:01:39.602Z,100357.60
2022-11-08T12:04:09.958Z,100360.49
2022-11-08T12:06:40.438Z,100351.04
2022-11-08T12:09:10.767Z,100350.39
2022-11-08T12:11:41.179Z,100349.00
2022-11-08T12:14:11.596Z,100349.69
2022-11-08T12:16:42.012Z,100341.14
2022-11-08T12:19:12.411Z,100354.33
2022-11-08T12:21:42.837Z,100343.95
2022-11-08T12:24:13.215Z,100350.73
2022-11-08T12:26:43.635Z,100351.24
2022-11-08T12:29:14.032Z,100345.88
2022-11-08T12:31:44.466Z,100347.13
2022-11-08T12:34:14.839Z,100342.49
2022-11-08T12:36:45.250Z,100344.58
2022-11-08T12:39:20.623Z,100343.35
2022-11-08T12:41:46.047Z,100340.70
2022-11-08T12:44:16.445Z,100336.35
2022-11-08T12:46:46.872Z,100333.69
2022-11-08T12:49:17.271Z,100333.98
2022-11-08T12:51:47.946Z,100323.76
2022-11-08T12:54:18.195Z,100317.52
2022-11-08T12:56:48.604Z,100311.67
2022-11-08T12:59:18.933Z,100297.44
2022-11-08T13:01:49.320Z,100289.36
2022-11-08T13:04:19.713Z,100284.72
2022-11-08T13:06:50.217Z,100274.96
2022-11-08T13:09:20.515Z,100265.26
2022-11-08T13:11:50.924Z,100261.62
2022-11-08T13:14:21.322Z,100259.59
2022-11-08T13:16:51.755Z,100276.61
2022-11-08T13:19:22.154Z,100271.88
2022-11-08T13:21:52.677Z,100269.01
2022-11-08T13:26:57.161Z,100251.70
2022-11-08T13:29:23.807Z,100248.21
2022-11-08T13:31:54.237Z,100257.40
2022-11-08T13:34:24.704Z,100248.88
2022-11-08T13:36:55.163Z,100266.05
2022-11-08T13:39:25.459Z,100268.41
2022-11-08T13:41:55.978Z,100282.03
2022-11-08T13:44:26.290Z,100279.08
2022-11-08T13:46:56.717Z,100280.48
2022-11-08T13:49:27.127Z,100281.44
2022-11-08T13:51:57.576Z,100286.97
2022-11-08T13:54:27.958Z,100279.46
2022-11-08T13:56:58.447Z,100283.96
2022-11-08T13:59:28.790Z,100298.83
2022-11-08T14:01:59.357Z,100304.18
2022-11-08T14:04:29.619Z,100305.85
2022-11-08T14:07:00.161Z,100310.45
2022-11-08T14:09:33.447Z,100300.91
2022-11-08T14:12:00.851Z,100298.86
2022-11-08T14:14:31.433Z,100299.27
2022-11-08T14:17:01.661Z,100298.23
2022-11-08T14:19:32.080Z,100295.16
2022-11-08T14:22:02.493Z,100289.14
2022-11-08T14:24:32.884Z,100288.78
2022-11-08T14:27:03.301Z,100286.31
2022-11-08T14:29:33.724Z,100291.76
2022-11-08T14:32:04.141Z,100281.66
2022-11-08T14:34:34.540Z,100286.30
2022-11-08T14:37:04.975Z,100281.48
2022-11-08T14:39:35.372Z,100284.10
2022-11-08T14:42:05.831Z,100279.47
2022-11-08T14:44:36.178Z,100278.45
2022-11-08T14:47:06.585Z,100283.35
2022-11-08T14:49:36.996Z,100267.10
2022-11-08T14:52:07.997Z,100277.34
2022-11-08T14:54:37.770Z,100256.98
2022-11-08T14:57:08.180Z,100270.63
2022-11-08T14:59:38.578Z,100268.05
2022-11-08T15:02:08.999Z,100274.84
2022-11-08T15:04:39.461Z,100260.77
2022-11-08T15:07:09.889Z,100268.77
2022-11-08T15:09:40.317Z,100265.06
2022-11-08T15:12:10.680Z,100262.32
2022-11-08T15:14:41.082Z,100272.13
2022-11-08T15:17:11.512Z,100269.55
2022-11-08T15:19:42.005Z,100270.32
2022-11-08T15:22:12.359Z,100268.23
2022-11-08T15:24:42.870Z,100268.16
2022-11-08T15:27:13.156Z,100272.83
2022-11-08T15:29:43.630Z,100268.30
2022-11-08T15:32:13.985Z,100264.68
2022-11-08T15:34:44.495Z,100262.60
2022-11-08T15:37:14.921Z,100262.22
2022-11-08T15:39:45.342Z,100262.76
2022-11-08T15:42:15.661Z,100257.47
2022-11-08T15:44:46.091Z,100254.89
2022-11-08T15:47:16.517Z,100255.54
2022-11-08T15:49:46.953Z,100250.01
2022-11-08T15:52:21.329Z,100260.12
2022-11-08T15:54:47.809Z,100258.56
2022-11-08T15:57:18.236Z,100259.55
2022-11-08T15:59:48.641Z,100258.71
2022-11-08T16:02:19.062Z,100264.86
2022-11-08T16:04:49.512Z,100264.86
2022-11-08T16:07:20.032Z,100265.94
2022-11-08T16:09:50.280Z,100257.68
2022-11-08T16:12:20.710Z,100260.47
2022-11-08T16:14:51.221Z,100256.24
2022-11-08T16:17:21.546Z,100256.34
2022-11-08T16:19:51.968Z,100250.27
2022-11-08T16:22:22.383Z,100253.99
2022-11-08T16:24:52.786Z,100253.42
2022-11-08T16:27:23.201Z,100254.86
2022-11-08T16:29:53.615Z,100252.14
2022-11-08T16:32:24.034Z,100255.96
2022-11-08T16:34:54.436Z,100256.07
2022-11-08T16:37:24.848Z,100247.02
2022-11-08T16:39:55.293Z,100245.57
2022-11-08T16:42:25.657Z,100243.56
2022-11-08T16:44:56.141Z,100240.37
2022-11-08T16:47:26.502Z,100239.06
2022-11-08T16:49:56.992Z,100234.12
2022-11-08T16:52:27.433Z,100231.85
2022-11-08T16:54:57.784Z,100239.74
2022-11-08T16:57:34.533Z,100240.49
2022-11-08T16:59:58.632Z,100242.06
2022-11-08T17:02:29.072Z,100239.57
2022-11-08T17:04:59.553Z,100246.82
2022-11-08T17:07:29.926Z,100245.38
2022-11-08T17:10:00.406Z,100250.27
2022-11-08T17:12:30.739Z,100250.98
2022-11-08T17:15:01.141Z,100256.44
2022-11-08T17:17:31.569Z,100255.33
2022-11-08T17:20:01.984Z,100251.31
2022-11-08T17:22:32.402Z,100252.69
2022-11-08T17:25:02.806Z,100251.77
2022-11-08T17:27:33.268Z,100259.30
2022-11-08T17:30:03.729Z,100250.21
2022-11-08T17:32:34.095Z,100257.26
2022-11-08T17:35:04.519Z,100262.75
2022-11-08T17:37:34.942Z,100262.23
2022-11-08T17:40:05.360Z,100265.17
2022-11-08T17:42:38.201Z,100269.99
2022-11-08T17:45:06.235Z,100266.80
2022-11-08T17:47:36.668Z,100271.06
2022-11-08T17:50:07.096Z,100273.23
2022-11-08T17:52:37.570Z,100270.33
2022-11-08T17:55:07.923Z,100265.76
2022-11-08T17:57:38.356Z,100264.20
2022-11-08T18:00:11.055Z,100274.91
2022-11-08T18:02:39.216Z,100276.86
2022-11-08T18:05:09.648Z,100270.57
2022-11-08T18:07:40.114Z,100274.08
2022-11-08T18:10:10.555Z,100275.09
2022-11-08T18:12:40.949Z,100273.60
2022-11-08T18:15:11.382Z,100276.76
2022-11-08T18:17:41.827Z,100276.20
2022-11-08T18:20:12.258Z,100274.68
2022-11-08T18:22:42.679Z,100270.11
2022-11-08T18:25:13.086Z,100270.33
2022-11-08T18:27:43.518Z,100274.18
2022-11-08T18:30:13.640Z,100272.71
2022-11-08T18:32:44.077Z,100279.71
2022-11-08T18:35:14.486Z,100279.17
2022-11-08T18:37:44.929Z,100277.31
2022-11-08T18:40:15.328Z,100276.10
2022-11-08T18:42:45.765Z,100269.87
2022-11-08T18:45:16.234Z,100272.68
2022-11-08T18:47:46.615Z,100275.72
2022-11-08T18:50:17.033Z,100269.56
2022-11-08T18:52:47.466Z,100265.74
2022-11-08T18:55:17.879Z,100267.66
2022-11-08T18:57:48.376Z,100270.99
2022-11-08T19:00:18.721Z,100265.79
2022-11-08T19:02:49.156Z,100266.62
2022-11-08T19:05:19.586Z,100267.61
2022-11-08T19:07:50.072Z,100266.34
2022-11-08T19:10:20.456Z,100267.00
2022-11-08T19:12:50.901Z,100266.03
2022-11-08T19:15:21.312Z,100265.62
2022-11-08T19:17:52.385Z,100267.49
2022-11-08T19:20:22.185Z,100266.72
2022-11-08T19:22:52.651Z,100275.78
2022-11-08T19:25:23.063Z,100276.14
2022-11-08T19:27:53.508Z,100281.99
2022-11-08T19:30:24.048Z,100277.27
2022-11-08T19:32:54.372Z,100273.49
2022-11-08T19:35:24.798Z,100277.16
2022-11-08T19:37:55.256Z,100280.75
2022-11-08T19:40:30.829Z,100284.01
2022-11-08T19:42:55.854Z,100280.66
2022-11-08T19:45:26.284Z,100285.25
2022-11-08T19:47:56.734Z,100285.71
2022-11-08T19:50:27.190Z,100288.70
2022-11-08T19:52:57.640Z,100290.07
2022-11-08T19:55:28.067Z,100289.23
2022-11-08T19:57:58.618Z,100284.05
2022-11-08T20:00:28.960Z,100286.08
2022-11-08T20:02:59.404Z,100285.70
2022-11-08T20:05:29.893Z,100278.58
2022-11-08T20:08:00.294Z,100281.06
2022-11-08T20:10:30.718Z,100282.83
2022-11-08T20:13:01.173Z,100282.55
2022-11-08T20:15:31.607Z,100287.16
2022-11-08T20:18:02.141Z,100288.04
2022-11-08T20:20:32.565Z,100294.08
2022-11-08T20:23:02.926Z,100294.93
2022-11-08T20:25:33.408Z,100295.03
2022-11-08T20:28:03.797Z,100299.98
2022-11-08T20:30:34.259Z,100300.09
2022-11-08T20:33:04.654Z,100292.53
2022-11-08T20:35:35.131Z,100292.33
2022-11-08T20:38:05.549Z,100290.11
2022-11-08T20:40:35.970Z,100286.85
2022-11-08T20:43:06.395Z,100286.10
2022-11-08T20:45:36.927Z,100291.81
2022-11-08T20:48:07.261Z,100297.03
2022-11-08T20:50:37.697Z,100295.65
2022-11-08T20:53:08.148Z,100309.21
2022-11-08T20:55:38.575Z,100301.34
2022-11-08T20:58:09.025Z,100299.95
2022-11-08T21:00:57.278Z,100301.31
2022-11-08T21:03:11.828Z,100306.79
2022-11-08T21:05:40.342Z,100302.76
2022-11-08T21:08:57.906Z,100302.75
2022-11-08T21:10:43.005Z,100298.92
2022-11-08T21:13:11.720Z,100295.95
2022-11-08T21:15:42.111Z,100298.53
2022-11-08T21:18:12.544Z,100293.80
2022-11-08T21:20:42.971Z,100294.40
2022-11-08T21:23:13.443Z,100294.99
2022-11-08T21:25:43.869Z,100302.91
2022-11-08T21:28:14.335Z,100306.86
2022-11-08T21:30:44.772Z,100304.05
2022-11-08T21:33:15.203Z,100306.23
2022-11-08T21:35:45.637Z,100307.98
2022-11-08T21:38:16.326Z,100310.24
2022-11-08T21:40:46.525Z,100316.11
2022-11-08T21:43:16.965Z,100311.18
2022-11-08T21:45:47.397Z,100307.67
2022-11-08T21:48:18.185Z,100306.58
2022-11-08T21:50:48.402Z,100313.42
2022-11-08T21:53:18.712Z,100305.90
2022-11-08T21:55:49.148Z,100305.59
2022-11-08T21:58:19.982Z,100304.00
2022-11-08T22:00:50.128Z,100306.01
2022-11-08T22:03:20.457Z,100311.19
2022-11-08T22:05:50.947Z,100309.02
2022-11-08T22:08:21.448Z,100306.70
2022-11-08T22:10:51.888Z,100308.45
2022-11-08T22:13:22.192Z,100311.63
2022-11-08T22:15:52.653Z,100311.63
2022-11-08T22:18:36.703Z,100311.43
2022-11-08T22:20:53.522Z,100307.45
2022-11-08T22:23:23.943Z,100307.00
2022-11-08T22:25:54.448Z,100308.23
2022-11-08T22:28:24.820Z,100310.61
2022-11-08T22:30:55.307Z,100306.05
2022-11-08T22:33:25.683Z,100305.72
2022-11-08T22:35:56.157Z,100305.07
2022-11-08T22:38:26.563Z,100308.25
2022-11-08T22:40:57.110Z,100306.07
2022-11-08T22:43:27.441Z,100314.69
2022-11-08T22:45:57.899Z,100315.93
2022-11-08T22:48:28.374Z,100321.56
2022-11-08T22:50:58.830Z,100316.01
2022-11-08T22:53:29.256Z,100317.16
2022-11-08T22:55:59.729Z,100314.47
2022-11-08T22:58:30.175Z,100311.34
2022-11-08T23:01:00.656Z,100302.84
2022-11-08T23:03:31.094Z,100304.86
2022-11-08T23:06:01.623Z,100301.12
2022-11-08T23:08:31.996Z,100302.96
2022-11-08T23:11:02.464Z,100303.58
2022-11-08T23:13:32.917Z,100302.09
2022-11-08T23:16:03.377Z,100302.46
2022-11-08T23:18:33.820Z,100306.05
2022-11-08T23:21:04.292Z,100302.08
2022-11-08T23:23:34.721Z,100302.78
2022-11-08T23:26:05.183Z,100307.16
2022-11-08T23:28:35.637Z,100307.38
2022-11-08T23:31:06.154Z,100298.25
2022-11-08T23:33:36.560Z,100290.31
2022-11-08T23:36:07.028Z,100300.31
2022-11-08T23:38:37.471Z,100294.72
2022-11-08T23:41:07.985Z,100292.09
2022-11-08T23:43:38.361Z,100291.37
2022-11-08T23:46:08.837Z,100296.90
2022-11-08T23:48:39.250Z,100303.68
2022-11-08T23:51:09.819Z,100305.19
2022-11-08T23:53:40.146Z,100303.29
2022-11-08T23:56:10.611Z,100301.88
2022-11-08T23:58:41.051Z,100299.17
